Time;durP1;ratioP1;P1;durP2;ratioP2;P2;SDS_P1;SDS_P2;PMS_P1;PMS_P2;Temp;Humidity;BMP_temperature;BMP_pressure;BME280_temperature;BME280_humidity;BME280_pressure;Samples;Min_cycle;Max_cycle;Signal;HPM_P1;HPM_P2
2023/05/10 00:02:02;;;;;;;42.67;15.20;;;;;;;11.65;100.00;63948.84;4937479;29;20055;-94
2023/05/10 00:04:40;;;;;;;42.57;16.00;;;;;;;11.63;100.00;63946.78;4955969;29;20059;-94
2023/05/10 00:07:06;;;;;;;40.83;15.70;;;;;;;11.61;100.00;63945.13;4955099;29;20050;-94
2023/05/10 00:09:31;;;;;;;40.80;15.90;;;;;;;11.59;100.00;63943.28;4970956;28;20059;-94
2023/05/10 00:11:58;;;;;;;41.97;16.30;;;;;;;11.58;100.00;63942.03;4957136;29;20475;-93
2023/05/10 00:14:27;;;;;;;43.30;15.83;;;;;;;11.56;100.00;63939.88;4971611;28;20134;-93
2023/05/10 00:16:52;;;;;;;47.27;17.17;;;;;;;11.54;100.00;63937.72;4970986;28;20654;-95
2023/05/10 00:19:17;;;;;;;49.17;17.98;;;;;;;11.52;100.00;63935.72;4974248;28;20022;-95
2023/05/10 00:21:43;;;;;;;54.80;18.60;;;;;;;11.50;100.00;63934.38;4977920;28;20080;-94
2023/05/10 00:24:16;;;;;;;57.63;19.47;;;;;;;11.49;100.00;63932.97;4979891;28;20023;-94
2023/05/10 00:26:42;;;;;;;51.00;18.67;;;;;;;11.48;100.00;63932.06;4955779;28;20018;-95
2023/05/10 00:29:08;;;;;;;48.40;18.35;;;;;;;11.46;100.00;63930.31;4955956;28;20022;-95
2023/05/10 00:31:34;;;;;;;47.75;18.10;;;;;;;11.44;100.00;63927.97;4971605;28;20039;-95
2023/05/10 00:33:59;;;;;;;42.97;17.10;;;;;;;11.42;100.00;63926.22;4917863;29;20024;-94
2023/05/10 00:36:25;;;;;;;40.40;16.48;;;;;;;11.39;100.00;63923.31;4935393;29;20034;-95
2023/05/10 00:38:50;;;;;;;44.53;16.97;;;;;;;11.36;100.00;63920.16;4936161;29;20102;-95
2023/05/10 00:41:16;;;;;;;47.97;17.50;;;;;;;11.33;100.00;63916.56;4945667;28;20446;-94
2023/05/10 00:43:41;;;;;;;50.10;18.48;;;;;;;11.29;100.00;63912.91;4967349;28;20027;-94
2023/05/10 00:46:07;;;;;;;51.80;18.20;;;;;;;11.25;100.00;63909.06;4977098;28;20086;-95
2023/05/10 00:48:33;;;;;;;51.25;18.27;;;;;;;11.23;100.00;63907.00;4938009;29;20066;-95
2023/05/10 00:50:58;;;;;;;59.50;19.43;;;;;;;11.22;100.00;63905.75;4954314;29;20033;-94
2023/05/10 00:53:30;;;;;;;59.28;19.88;;;;;;;11.20;100.00;63904.19;4954301;29;20031;-95
2023/05/10 00:55:55;;;;;;;60.20;19.70;;;;;;;11.19;100.00;63902.91;4954387;28;20504;-95
2023/05/10 00:58:31;;;;;;;;;;;;;;;;;;;;;
2023/05/10 01:00:58;;;;;;;72.93;22.00;;;;;;;11.18;100.00;63901.44;4969062;28;20043;-95
2023/05/10 01:03:24;;;;;;;73.13;21.98;;;;;;;11.18;100.00;63901.25;4973177;28;20053;-95
2023/05/10 01:05:50;;;;;;;65.37;22.17;;;;;;;11.18;100.00;63900.91;4973014;28;20027;-94
2023/05/10 01:08:15;;;;;;;76.10;22.83;;;;;;;11.17;100.00;63900.34;4971374;28;20369;-94
2023/05/10 01:10:42;;;;;;;71.43;22.73;;;;;;;11.16;100.00;63900.19;4973107;28;20031;-95
2023/05/10 01:13:09;;;;;;;70.70;22.25;;;;;;;11.16;100.00;63899.94;4966249;28;20035;-94
2023/05/10 01:15:36;;;;;;;67.80;22.42;;;;;;;11.15;100.00;63898.84;4953375;29;20069;-95
2023/05/10 01:18:02;;;;;;;72.90;22.92;;;;;;;11.13;100.00;63897.25;4953642;29;20042;-95
2023/05/10 01:20:36;;;;;;;78.32;25.95;;;;;;;11.13;100.00;63896.75;4953634;29;20059;-95
2023/05/10 01:23:24;;;;;;;88.70;26.67;;;;;;;11.13;100.00;63896.75;4943116;28;20471;-95
2023/05/10 01:25:58;;;;;;;89.32;27.08;;;;;;;11.13;100.00;63896.69;4971696;28;20383;-94
2023/05/10 01:28:49;;;;;;;98.20;27.38;;;;;;;11.13;100.00;63897.19;4972549;28;20022;-94
2023/05/10 01:31:43;;;;;;;124.17;30.93;;;;;;;11.14;100.00;63898.09;4972805;28;20128;-94
2023/05/10 01:34:23;;;;;;;120.80;30.20;;;;;;;11.15;100.00;63899.16;4972292;28;20626;-94
2023/05/10 01:37:05;;;;;;;127.60;31.17;;;;;;;11.16;100.00;63900.19;4971530;28;20023;-95
2023/05/10 01:39:55;;;;;;;141.27;34.55;;;;;;;11.18;100.00;63901.84;4951434;28;20058;-95
2023/05/10 01:42:28;;;;;;;156.70;35.75;;;;;;;11.19;100.00;63903.16;4948132;29;20059;-95
2023/05/10 01:45:05;;;;;;;183.15;40.13;;;;;;;11.20;100.00;63904.25;4953050;29;20035;-95
2023/05/10 01:47:38;;;;;;;169.05;37.75;;;;;;;11.22;100.00;63905.91;4953744;29;20527;-95
2023/05/10 01:50:10;;;;;;;166.32;37.10;;;;;;;11.23;100.00;63907.56;4935307;29;20031;-95
2023/05/10 01:52:42;;;;;;;175.38;40.30;;;;;;;11.25;100.00;63909.09;4968356;28;20086;-96
2023/05/10 01:55:20;;;;;;;174.65;38.65;;;;;;;11.26;100.00;63910.16;4954668;28;20030;-95
2023/05/10 01:57:47;;;;;;;185.97;41.60;;;;;;;11.28;100.00;63912.00;4972015;28;20027;-96
2023/05/10 02:00:15;;;;;;;172.03;39.93;;;;;;;11.29;100.00;63913.66;4971996;28;20271;-95
2023/05/10 02:02:48;;;;;;;174.02;41.60;;;;;;;11.31;100.00;63915.31;4972060;28;20026;-96
2023/05/10 02:05:16;;;;;;;171.95;40.83;;;;;;;11.32;100.00;63916.47;4950323;29;20035;-95
2023/05/10 02:07:42;;;;;;;155.75;39.63;;;;;;;11.33;100.00;63917.41;4934673;29;20478;-95
2023/05/10 02:10:09;;;;;;;162.00;39.15;;;;;;;11.34;100.00;63918.81;4935219;29;20482;-95
2023/05/10 02:12:37;;;;;;;149.38;39.28;;;;;;;11.35;100.00;63919.97;4952471;28;20118;-94
2023/05/10 02:15:11;;;;;;;165.30;39.33;;;;;;;11.36;100.00;63921.47;4971541;28;20027;-95
2023/05/10 02:17:38;;;;;;;154.88;40.17;;;;;;;11.37;100.00;63922.31;4955012;28;20089;-95
2023/05/10 02:20:07;;;;;;;162.40;40.55;;;;;;;11.38;100.00;63923.47;4972693;28;20290;-96
2023/05/10 02:22:35;;;;;;;152.37;37.50;;;;;;;11.39;100.00;63924.91;4954786;28;20118;-96
2023/05/10 02:25:01;;;;;;;146.43;38.10;;;;;;;11.40;100.00;63926.16;4971779;28;20281;-94
2023/05/10 02:27:27;;;;;;;166.45;41.17;;;;;;;11.41;100.00;63926.72;4954880;28;20031;-96
2023/05/10 02:29:54;;;;;;;161.40;40.92;;;;;;;11.41;100.00;63926.97;4954288;28;20081;-95
2023/05/10 02:32:21;;;;;;;170.57;43.38;;;;;;;11.41;100.00;63927.38;4942628;29;20032;-96
2023/05/10 02:34:51;;;;;;;173.77;44.72;;;;;;;11.42;100.00;63928.22;4959940;28;20059;-96
2023/05/10 02:37:19;;;;;;;180.25;45.63;;;;;;;11.43;100.00;63928.81;4952132;29;20047;-95
2023/05/10 02:39:47;;;;;;;169.95;45.30;;;;;;;11.43;100.00;63928.97;4935072;28;20067;-95
2023/05/10 02:42:30;;;;;;;191.18;48.20;;;;;;;11.44;100.00;63929.47;4955625;29;20027;-96
2023/05/10 02:45:07;;;;;;;172.37;45.27;;;;;;;11.44;100.00;63929.88;4938970;29;20027;-96
2023/05/10 02:47:43;;;;;;;179.03;45.33;;;;;;;11.44;100.00;63929.97;4939284;29;20322;-96
2023/05/10 02:50:09;;;;;;;168.65;44.17;;;;;;;11.44;100.00;63930.38;4935988;29;20114;-96
2023/05/10 02:53:04;;;;;;;170.07;44.38;;;;;;;11.45;100.00;63931.31;4936801;29;20106;-95
2023/05/10 02:55:35;;;;;;;178.02;45.20;;;;;;;11.45;100.00;63931.97;4937100;29;20055;-96
2023/05/10 02:58:02;;;;;;;184.73;46.42;;;;;;;11.46;100.00;63932.38;4936750;29;20030;-96
2023/05/10 03:00:27;;;;;;;160.63;44.67;;;;;;;11.46;100.00;63932.88;4937236;29;20047;-95
2023/05/10 03:02:53;;;;;;;163.97;45.07;;;;;;;11.46;100.00;63932.38;4936286;28;20062;-95
2023/05/10 03:05:19;;;;;;;149.98;44.15;;;;;;;11.45;100.00;63931.81;4958375;28;20038;-96
2023/05/10 03:07:46;;;;;;;148.02;43.33;;;;;;;11.44;100.00;63930.47;4986706;28;20029;-94
2023/05/10 03:10:11;;;;;;;142.15;43.22;;;;;;;11.42;100.00;63928.72;4985370;28;20027;-96
2023/05/10 03:13:06;;;;;;;158.17;44.60;;;;;;;11.41;100.00;63927.13;4986615;28;20041;-95
2023/05/10 03:15:45;;;;;;;152.68;42.05;;;;;;;11.40;100.00;63927.16;4986875;28;20019;-96
2023/05/10 03:18:27;;;;;;;149.90;43.83;;;;;;;11.39;100.00;63926.03;4969107;28;20118;-94
2023/05/10 03:20:59;;;;;;;152.82;42.83;;;;;;;11.39;100.00;63926.53;4940170;29;20051;-96
2023/05/10 03:23:33;;;;;;;163.77;44.42;;;;;;;11.39;100.00;63926.28;4941116;29;20035;-95
2023/05/10 03:26:00;;;;;;;157.73;43.55;;;;;;;11.39;100.00;63926.78;4956468;28;20022;-95
2023/05/10 03:28:27;;;;;;;152.27;43.85;;;;;;;11.39;100.00;63926.63;4941620;29;20023;-96
2023/05/10 03:30:56;;;;;;;149.40;41.83;;;;;;;11.38;100.00;63926.22;4919162;29;20506;-96
2023/05/10 03:33:22;;;;;;;158.38;42.63;;;;;;;11.38;100.00;63925.72;4918958;29;20027;-96
2023/05/10 03:35:47;;;;;;;148.03;41.60;;;;;;;11.39;100.00;63926.63;4956043;28;20478;-96
2023/05/10 03:38:13;;;;;;;142.90;39.77;;;;;;;11.38;100.00;63926.13;4946032;28;20032;-96
2023/05/10 03:40:39;;;;;;;145.52;41.22;;;;;;;11.38;100.00;63925.88;4936139;29;20051;-96
2023/05/10 03:43:07;;;;;;;146.32;40.63;;;;;;;11.38;100.00;63926.13;4935923;29;20043;-95
2023/05/10 03:45:32;;;;;;;148.60;41.10;;;;;;;11.38;100.00;63926.22;4935925;29;20479;-96
2023/05/10 03:47:58;;;;;;;152.50;39.70;;;;;;;11.38;100.00;63926.22;4936100;29;20103;-96
2023/05/10 03:50:24;;;;;;;144.00;40.87;;;;;;;11.38;100.00;63926.38;4935579;29;20028;-96
2023/05/10 03:52:49;;;;;;;141.05;40.47;;;;;;;11.38;100.00;63926.38;4948741;29;20043;-96
2023/05/10 03:55:15;;;;;;;133.20;38.47;;;;;;;11.39;100.00;63927.13;4937524;29;20661;-96
2023/05/10 03:57:44;;;;;;;137.45;36.90;;;;;;;11.39;100.00;63927.97;4955066;29;20026;-95
2023/05/10 04:00:10;;;;;;;134.48;37.88;;;;;;;11.39;100.00;63927.88;4963494;28;20026;-96
2023/05/10 04:02:36;;;;;;;126.93;37.38;;;;;;;11.39;100.00;63928.22;4974065;28;20019;-96
2023/05/10 04:05:02;;;;;;;135.27;38.00;;;;;;;11.40;100.00;63929.13;4973683;28;20069;-95
2023/05/10 04:07:27;;;;;;;132.55;37.55;;;;;;;11.41;100.00;63929.78;4974338;28;20019;-95
2023/05/10 04:09:53;;;;;;;135.30;37.73;;;;;;;11.41;100.00;63930.13;4949234;28;20089;-96
2023/05/10 04:12:18;;;;;;;128.90;35.95;;;;;;;11.42;100.00;63930.47;4936082;29;20082;-95
2023/05/10 04:14:44;;;;;;;155.50;42.47;;;;;;;11.42;100.00;63930.88;4936850;29;20034;-94
2023/05/10 04:17:10;;;;;;;158.83;39.90;;;;;;;11.42;100.00;63930.47;4937263;29;20028;-96
2023/05/10 04:19:35;;;;;;;157.05;41.33;;;;;;;11.42;100.00;63930.63;4935356;29;20479;-95
2023/05/10 04:22:02;;;;;;;168.93;41.73;;;;;;;11.42;100.00;63930.72;4935440;29;20028;-95
2023/05/10 04:24:27;;;;;;;178.45;44.45;;;;;;;11.42;100.00;63930.88;4968427;28;20414;-94
2023/05/10 04:26:56;;;;;;;185.50;44.83;;;;;;;11.42;100.00;63931.22;4972826;28;20031;-95
2023/05/10 04:29:24;;;;;;;196.73;47.30;;;;;;;11.43;100.00;63931.28;4935408;28;20036;-96
2023/05/10 04:31:50;;;;;;;199.90;46.80;;;;;;;11.42;100.00;63931.06;4918181;29;20028;-94
2023/05/10 04:34:16;;;;;;;187.93;45.88;;;;;;;11.43;100.00;63931.47;4935629;29;20028;-95
2023/05/10 04:36:44;;;;;;;197.23;44.80;;;;;;;11.43;100.00;63931.47;4935102;29;20506;-93
2023/05/10 04:39:09;;;;;;;214.65;48.38;;;;;;;11.42;100.00;63931.22;4934795;28;20027;-94
2023/05/10 04:41:41;;;;;;;192.95;45.22;;;;;;;11.42;100.00;63930.28;4973877;28;20029;-93
2023/05/10 04:44:06;;;;;;;176.00;41.97;;;;;;;11.42;100.00;63930.97;4955551;28;20437;-93
2023/05/10 04:46:32;;;;;;;154.05;41.03;;;;;;;11.41;100.00;63930.19;4973133;28;20061;-95
2023/05/10 04:49:14;;;;;;;;;;;;;;;;;;;;;
2023/05/10 04:51:44;;;;;;;114.78;35.70;;;;;;;11.38;100.00;63927.72;4973133;28;20035;-95
2023/05/10 04:54:10;;;;;;;114.88;34.08;;;;;;;11.37;100.00;63926.72;4956434;28;20023;-94
2023/05/10 04:56:35;;;;;;;104.00;30.93;;;;;;;11.36;100.00;63925.06;4957122;28;20054;-95
2023/05/10 04:59:01;;;;;;;95.40;30.38;;;;;;;11.34;100.00;63923.47;4953892;29;20035;-94
2023/05/10 05:01:38;;;;;;;93.80;29.50;;;;;;;11.33;100.00;63921.97;4952625;28;20067;-94
2023/05/10 05:04:17;;;;;;;87.63;27.65;;;;;;;11.32;100.00;63920.56;4934546;29;20439;-93
2023/05/10 05:06:53;;;;;;;93.15;29.42;;;;;;;11.31;100.00;63920.31;4959655;28;20026;-94
2023/05/10 05:09:18;;;;;;;91.00;28.83;;;;;;;11.30;100.00;63919.66;4973263;28;20031;-94
2023/05/10 05:11:44;;;;;;;85.03;28.60;;;;;;;11.29;100.00;63919.06;4973391;28;20023;-94
2023/05/10 05:14:15;;;;;;;93.30;28.33;;;;;;;11.29;100.00;63918.72;4972995;28;20030;-94
2023/05/10 05:16:45;;;;;;;91.87;28.63;;;;;;;11.29;100.00;63918.63;4972906;28;20329;-94
2023/05/10 05:19:15;;;;;;;90.35;28.90;;;;;;;11.29;100.00;63918.72;4992676;23;20031;-95
2023/05/10 05:21:40;;;;;;;87.25;28.38;;;;;;;11.29;100.00;63918.22;4964904;28;20027;-95
2023/05/10 05:24:06;;;;;;;82.78;28.23;;;;;;;11.30;100.00;63919.47;4954703;28;20035;-95
2023/05/10 05:26:37;;;;;;;82.97;28.77;;;;;;;11.31;100.00;63920.53;4972215;28;20035;-94
2023/05/10 05:29:05;;;;;;;91.95;29.75;;;;;;;11.32;100.00;63922.13;4972432;28;20482;-93
2023/05/10 05:31:36;;;;;;;90.13;28.90;;;;;;;11.34;100.00;63924.13;4972420;28;20035;-94
2023/05/10 05:34:02;;;;;;;90.30;28.95;;;;;;;11.36;100.00;63925.38;4972694;28;20029;-94
2023/05/10 05:36:31;;;;;;;74.20;26.47;;;;;;;11.37;100.00;63926.38;4967884;28;20016;-95
2023/05/10 05:38:57;;;;;;;82.65;29.45;;;;;;;11.39;100.00;63927.78;4935811;29;20390;-94
2023/05/10 05:41:23;;;;;;;79.65;27.83;;;;;;;11.40;100.00;63929.38;4953632;29;20023;-94
2023/05/10 05:44:01;;;;;;;83.57;27.87;;;;;;;11.41;100.00;63930.88;4940600;28;20027;-93
2023/05/10 05:46:26;;;;;;;80.37;28.33;;;;;;;11.42;100.00;63931.97;4955232;28;20859;-93
2023/05/10 05:48:55;;;;;;;74.43;28.30;;;;;;;11.43;100.00;63932.78;4955101;28;20039;-93
2023/05/10 05:51:24;;;;;;;72.47;27.77;;;;;;;11.44;100.00;63934.19;4942710;29;20094;-94
2023/05/10 05:54:33;;;;;;;82.03;27.53;;;;;;;11.46;100.00;63936.69;4940571;29;20471;-93
2023/05/10 05:57:00;;;;;;;73.10;27.53;;;;;;;11.49;100.00;63939.53;4867150;29;20388;-86
2023/05/10 05:59:26;;;;;;;77.45;27.55;;;;;;;11.52;100.00;63943.28;4944616;28;20358;-87
2023/05/10 06:01:51;;;;;;;79.53;28.17;;;;;;;11.55;100.00;63946.28;4952170;29;20023;-88
2023/05/10 06:04:17;;;;;;;74.87;28.07;;;;;;;11.58;100.00;63949.34;4952014;29;20094;-87
2023/05/10 06:06:43;;;;;;;73.10;27.58;;;;;;;11.62;100.00;63952.03;4951559;29;20109;-87
2023/05/10 06:09:09;;;;;;;68.90;27.37;;;;;;;11.64;100.00;63955.09;4951821;28;20247;-83
2023/05/10 06:11:35;;;;;;;73.07;27.60;;;;;;;11.67;100.00;63958.09;4963727;28;20116;-83
2023/05/10 06:14:01;;;;;;;71.05;27.17;;;;;;;11.70;100.00;63961.09;4970472;28;20047;-84
2023/05/10 06:16:27;;;;;;;68.75;26.60;;;;;;;11.73;100.00;63964.03;4970106;28;20031;-83
2023/05/10 06:18:52;;;;;;;74.23;28.03;;;;;;;11.77;100.00;63968.34;4964561;28;20058;-84
2023/05/10 06:21:17;;;;;;;70.03;27.73;;;;;;;11.81;100.00;63972.84;4951449;28;20093;-84
2023/05/10 06:23:43;;;;;;;73.47;28.87;;;;;;;11.86;100.00;63977.75;4951641;29;20035;-84
2023/05/10 06:26:09;;;;;;;75.20;28.27;;;;;;;11.91;100.00;63982.66;4951841;28;20876;-83
2023/05/10 06:28:34;;;;;;;72.22;27.85;;;;;;;11.96;100.00;63987.72;4967755;28;20042;-83
2023/05/10 06:31:00;;;;;;;68.97;27.00;;;;;;;12.01;100.00;63992.94;4970391;28;20525;-83
2023/05/10 06:33:25;;;;;;;66.57;27.23;;;;;;;12.05;100.00;63996.75;4956488;28;20556;-84
2023/05/10 06:35:51;;;;;;;67.07;27.40;;;;;;;12.09;100.00;64000.84;4964873;28;20027;-84
2023/05/10 06:38:16;;;;;;;62.70;26.60;;;;;;;12.12;100.00;64004.16;4934657;28;20435;-85
2023/05/10 06:40:42;;;;;;;74.83;28.60;;;;;;;12.15;100.00;64007.50;4957589;28;20030;-84
2023/05/10 06:43:07;;;;;;;68.15;27.05;;;;;;;12.19;100.00;64010.56;4954628;28;20030;-83
2023/05/10 06:45:32;;;;;;;59.77;26.23;;;;;;;12.21;100.00;64013.41;4954516;28;20089;-84
2023/05/10 06:47:58;;;;;;;60.07;27.03;;;;;;;12.23;100.00;64015.06;4951724;29;20429;-84
2023/05/10 06:50:23;;;;;;;63.77;27.27;;;;;;;12.25;100.00;64017.00;4951602;28;20035;-84
2023/05/10 06:52:48;;;;;;;64.53;27.17;;;;;;;12.27;100.00;64019.31;4963968;28;20023;-84
2023/05/10 06:55:14;;;;;;;65.03;27.63;;;;;;;12.28;100.00;64020.66;4970651;28;20026;-84
2023/05/10 06:57:39;;;;;;;65.60;28.15;;;;;;;12.29;100.00;64021.50;4969289;28;20382;-84
2023/05/10 07:00:05;;;;;;;68.80;28.47;;;;;;;12.31;100.00;64023.50;4951514;29;20023;-84
2023/05/10 07:02:30;;;;;;;76.47;29.30;;;;;;;12.34;100.00;64026.06;4951870;28;20031;-85
2023/05/10 07:04:56;;;;;;;70.20;29.50;;;;;;;12.36;100.00;64029.06;4958444;28;20046;-84
2023/05/10 07:07:21;;;;;;;71.53;29.83;;;;;;;12.39;100.00;64031.81;4969051;28;20474;-84
2023/05/10 07:09:47;;;;;;;72.10;30.38;;;;;;;12.41;100.00;64034.25;4969155;28;20030;-84
2023/05/10 07:12:12;;;;;;;65.70;29.10;;;;;;;12.44;100.00;64036.56;4961982;28;20035;-84
2023/05/10 07:14:37;;;;;;;70.97;30.30;;;;;;;12.46;100.00;64039.31;4952637;28;20028;-84
2023/05/10 07:17:03;;;;;;;68.33;29.20;;;;;;;12.49;100.00;64042.06;4950881;29;20114;-84
2023/05/10 07:19:29;;;;;;;70.40;30.17;;;;;;;12.51;100.00;64044.91;4951346;29;20024;-84
2023/05/10 07:21:54;;;;;;;64.37;29.90;;;;;;;12.53;100.00;64047.25;4952305;28;20039;-84
2023/05/10 07:24:20;;;;;;;64.40;29.00;;;;;;;12.55;100.00;64049.25;4959009;28;20718;-84
2023/05/10 07:26:46;;;;;;;62.23;28.30;;;;;;;12.57;100.00;64050.66;4959403;28;20035;-84
2023/05/10 07:29:11;;;;;;;62.75;28.15;;;;;;;12.59;100.00;64052.97;4954786;29;20082;-85
2023/05/10 07:31:37;;;;;;;66.43;29.20;;;;;;;12.61;100.00;64054.75;4957271;28;20494;-85
2023/05/10 07:34:02;;;;;;;56.83;27.30;;;;;;;12.62;100.00;64056.16;4957439;28;20398;-85
2023/05/10 07:36:27;;;;;;;56.00;25.13;;;;;;;12.63;100.00;64057.47;4965920;28;20130;-86
2023/05/10 07:38:53;;;;;;;55.30;26.60;;;;;;;12.64;100.00;64058.56;4968878;28;20038;-86
2023/05/10 07:41:18;;;;;;;60.00;27.47;;;;;;;12.65;100.00;64059.97;4972384;28;20050;-86
2023/05/10 07:43:44;;;;;;;58.53;26.67;;;;;;;12.67;100.00;64061.81;4974186;28;20031;-86
2023/05/10 07:46:10;;;;;;;54.08;26.25;;;;;;;12.69;100.00;64063.81;4973180;28;20508;-86
2023/05/10 07:48:37;;;;;;;55.67;24.98;;;;;;;12.71;100.00;64065.31;4974000;28;20065;-86
2023/05/10 07:51:02;;;;;;;48.25;22.77;;;;;;;12.72;100.00;64066.41;4973546;28;20035;-86
2023/05/10 07:53:27;;;;;;;43.03;21.37;;;;;;;12.72;100.00;64066.91;4974174;28;20101;-86
2023/05/10 07:55:58;;;;;;;44.37;22.13;;;;;;;12.73;100.00;64067.97;4966680;28;20074;-86
2023/05/10 07:58:24;;;;;;;44.60;21.67;;;;;;;12.74;100.00;64069.16;4954169;28;20066;-86
2023/05/10 08:00:50;;;;;;;46.85;21.90;;;;;;;12.76;100.00;64070.91;4954210;29;20450;-86
2023/05/10 08:03:15;;;;;;;41.63;20.67;;;;;;;12.77;100.00;64072.47;4953949;29;20039;-86
2023/05/10 08:05:42;;;;;;;39.83;20.93;;;;;;;12.78;100.00;64074.00;4954010;29;20379;-85
2023/05/10 08:08:07;;;;;;;39.40;20.75;;;;;;;12.80;100.00;64075.56;4953727;29;20023;-86
2023/05/10 08:10:32;;;;;;;36.93;19.33;;;;;;;12.82;100.00;64077.16;4954309;29;20023;-86
2023/05/10 08:12:58;;;;;;;37.43;19.70;;;;;;;12.83;100.00;64078.56;4953308;28;20074;-86
2023/05/10 08:15:24;;;;;;;35.13;19.15;;;;;;;12.84;100.00;64079.13;4953896;29;20031;-86
2023/05/10 08:17:49;;;;;;;36.77;19.20;;;;;;;12.85;100.00;64080.56;4954147;29;20502;-86
2023/05/10 08:20:18;;;;;;;35.10;18.97;;;;;;;12.86;100.00;64082.16;4953689;28;20305;-86
2023/05/10 08:22:44;;;;;;;37.50;17.83;;;;;;;12.88;100.00;64085.06;4954146;29;20027;-85
2023/05/10 08:25:09;;;;;;;40.37;19.03;;;;;;;12.91;100.00;64087.56;4953272;29;20377;-85
2023/05/10 08:27:35;;;;;;;32.58;18.05;;;;;;;12.94;100.00;64090.41;4954067;29;20034;-86
2023/05/10 08:30:00;;;;;;;33.30;17.43;;;;;;;12.97;100.00;64093.50;4954744;28;20125;-85
2023/05/10 08:32:25;;;;;;;38.33;18.07;;;;;;;13.00;100.00;64096.72;4953682;29;20050;-85
2023/05/10 08:34:51;;;;;;;35.77;18.00;;;;;;;13.03;100.00;64100.06;4953605;29;20039;-85
2023/05/10 08:37:16;;;;;;;29.70;17.33;;;;;;;13.08;100.00;64104.50;4953285;29;20027;-85
2023/05/10 08:39:41;;;;;;;24.43;15.87;;;;;;;13.13;100.00;64110.06;4952905;28;20386;-86
2023/05/10 08:42:25;;;;;;;31.60;14.87;;;;;;;14.13;100.00;101002.78;5087096;27;20433;-86
2023/05/10 08:44:52;;;;;;;30.67;14.97;;;;;;;14.25;100.00;101011.34;5099588;28;20385;-87
2023/05/10 08:47:18;;;;;;;43.05;16.75;;;;;;;14.22;100.00;101015.41;5107689;28;20044;-86
2023/05/10 08:49:48;;;;;;;37.28;16.30;;;;;;;14.17;100.00;101015.41;5102232;28;20032;-86
2023/05/10 08:52:16;;;;;;;18.00;12.85;;;;;;;14.16;100.00;101016.50;5087301;28;20043;-87
2023/05/10 08:54:42;;;;;;;20.83;11.32;;;;;;;14.18;100.00;101016.25;5087390;28;20020;-87
2023/05/10 08:57:07;;;;;;;18.77;10.37;;;;;;;14.37;100.00;101022.59;5086820;28;20033;-86
2023/05/10 08:59:33;;;;;;;16.63;10.10;;;;;;;14.45;100.00;101026.59;5085936;28;20028;-87
2023/05/10 09:02:02;;;;;;;13.93;9.60;;;;;;;14.37;100.00;101019.91;5087322;28;20028;-87
2023/05/10 09:04:48;;;;;;;15.75;9.50;;;;;;;14.47;100.00;101026.31;5087322;28;20024;-86
2023/05/10 09:07:13;;;;;;;16.13;9.45;;;;;;;14.61;100.00;101027.28;5084519;28;20036;-86
2023/05/10 09:09:39;;;;;;;14.50;8.83;;;;;;;14.74;100.00;101031.28;5087156;28;20058;-86
2023/05/10 09:12:06;;;;;;;12.17;7.90;;;;;;;14.59;100.00;101028.66;5086566;28;20411;-86
2023/05/10 09:14:35;;;;;;;12.75;7.78;;;;;;;14.57;100.00;101028.97;5087249;28;20074;-86
2023/05/10 09:17:00;;;;;;;14.00;7.53;;;;;;;14.82;100.00;101044.19;5086395;28;20073;-86
2023/05/10 09:19:27;;;;;;;12.23;7.40;;;;;;;15.11;100.00;101034.53;5087230;28;20036;-86
2023/05/10 09:21:53;;;;;;;12.55;7.03;;;;;;;15.17;100.00;101036.06;5084860;28;20110;-86
2023/05/10 09:24:18;;;;;;;12.50;6.17;;;;;;;15.29;100.00;101035.69;5086501;28;20547;-85
2023/05/10 09:26:51;;;;;;;10.13;6.00;;;;;;;15.39;100.00;101040.19;5086356;28;20031;-86
2023/05/10 09:29:16;;;;;;;9.30;6.67;;;;;;;15.49;100.00;101042.81;5086295;28;20304;-86
2023/05/10 09:31:51;;;;;;;10.40;6.55;;;;;;;15.35;100.00;101041.84;5086997;28;20028;-86
2023/05/10 09:34:28;;;;;;;7.03;5.75;;;;;;;15.29;100.00;101050.00;5086375;28;20024;-86
2023/05/10 09:36:56;;;;;;;9.27;6.20;;;;;;;15.26;100.00;101039.78;5085270;28;20032;-86
2023/05/10 09:39:30;;;;;;;7.17;6.20;;;;;;;15.36;100.00;101048.84;5086054;28;20357;-86
2023/05/10 09:41:55;;;;;;;8.98;6.10;;;;;;;15.35;100.00;101045.38;5086551;28;20094;-86
2023/05/10 09:44:20;;;;;;;8.53;5.67;;;;;;;15.36;100.00;101049.69;5086488;28;20466;-86
2023/05/10 09:46:50;;;;;;;8.80;6.00;;;;;;;15.52;100.00;101061.13;5085868;28;20365;-87
2023/05/10 09:49:16;;;;;;;9.07;6.10;;;;;;;15.72;100.00;101056.59;5086188;28;20057;-86
2023/05/10 09:51:41;;;;;;;11.30;5.90;;;;;;;15.83;100.00;101052.72;5083134;28;20290;-86
2023/05/10 09:54:14;;;;;;;10.10;5.73;;;;;;;15.88;100.00;101055.38;5072514;28;20487;-86
2023/05/10 09:56:40;;;;;;;8.05;6.07;;;;;;;15.90;100.00;101052.38;5072155;28;20785;-86
2023/05/10 09:59:07;;;;;;;8.30;6.07;;;;;;;15.86;100.00;101062.16;5072631;28;20092;-86
2023/05/10 10:01:34;;;;;;;8.77;6.28;;;;;;;15.67;100.00;101054.75;5072767;28;20029;-86
2023/05/10 10:04:03;;;;;;;9.48;5.68;;;;;;;15.44;100.00;101059.06;5070945;28;20447;-86
2023/05/10 10:06:29;;;;;;;7.90;5.53;;;;;;;15.15;100.00;101059.88;5072476;28;20040;-86
2023/05/10 10:08:56;;;;;;;7.80;5.50;;;;;;;14.93;100.00;101066.50;5072330;28;20066;-86
2023/05/10 10:11:23;;;;;;;9.63;6.43;;;;;;;14.78;100.00;101061.22;5072119;28;20028;-86
2023/05/10 10:13:49;;;;;;;8.80;5.75;;;;;;;14.69;100.00;101063.72;5072553;28;20024;-85
2023/05/10 10:16:14;;;;;;;11.00;6.10;;;;;;;14.56;100.00;101061.56;5071750;28;20074;-86
2023/05/10 10:18:41;;;;;;;9.40;6.20;;;;;;;14.48;100.00;101058.41;5071465;28;20055;-86
2023/05/10 10:21:08;;;;;;;11.32;7.85;;;;;;;14.50;100.00;101058.13;5071906;28;20029;-86
2023/05/10 10:23:34;;;;;;;9.70;7.35;;;;;;;14.64;100.00;101056.41;5072406;28;20554;-85
2023/05/10 10:26:01;;;;;;;10.23;7.45;;;;;;;14.85;100.00;101069.78;5071331;28;20044;-86
2023/05/10 10:28:40;;;;;;;12.57;8.23;;;;;;;15.34;100.00;101068.06;5072356;28;20547;-85
2023/05/10 10:31:20;;;;;;;16.50;8.53;;;;;;;15.89;100.00;101067.78;5071509;28;20801;-86
2023/05/10 10:34:03;;;;;;;10.70;8.25;;;;;;;16.49;100.00;101071.91;5071442;28;20052;-86
2023/05/10 10:36:29;;;;;;;12.10;8.93;;;;;;;16.76;100.00;101062.34;5071628;28;20036;-86
2023/05/10 10:38:59;;;;;;;13.73;8.35;;;;;;;16.68;100.00;101065.69;5072047;28;20032;-86
2023/05/10 10:41:34;;;;;;;9.63;7.87;;;;;;;16.52;100.00;101065.13;5071735;28;20463;-86
2023/05/10 10:44:25;;;;;;;12.50;7.20;;;;;;;16.20;100.00;101061.19;5071521;28;20310;-86
2023/05/10 10:47:00;;;;;;;9.77;7.22;;;;;;;16.02;100.00;101062.78;5068672;28;20036;-86
2023/05/10 10:49:26;;;;;;;10.45;7.25;;;;;;;15.92;100.00;101065.59;5071694;28;20028;-87
2023/05/10 10:52:35;;;;;;;9.60;7.38;;;;;;;15.49;100.00;101067.09;5071671;28;20017;-87
2023/05/10 10:55:10;;;;;;;9.15;7.25;;;;;;;15.04;100.00;101063.72;5064912;28;20589;-87
2023/05/10 10:57:51;;;;;;;11.85;8.35;;;;;;;14.82;100.00;101063.06;5071698;28;20480;-87
2023/05/10 11:00:21;;;;;;;11.75;7.05;;;;;;;14.69;100.00;101061.81;5070944;28;20593;-87
2023/05/10 11:02:48;;;;;;;10.73;7.37;;;;;;;14.76;100.00;101055.28;5069484;28;20178;-87
2023/05/10 11:05:32;;;;;;;10.77;6.95;;;;;;;14.84;100.00;101060.91;5069825;28;20043;-87
2023/05/10 11:07:59;;;;;;;10.25;7.10;;;;;;;15.06;100.00;101058.84;5071371;28;20028;-87
2023/05/10 11:10:26;;;;;;;11.77;7.28;;;;;;;15.62;100.00;101059.41;5071552;28;20040;-87
2023/05/10 11:13:12;;;;;;;12.18;7.10;;;;;;;15.85;100.00;101061.38;5071325;28;20029;-88
2023/05/10 11:15:39;;;;;;;9.35;7.32;;;;;;;15.99;100.00;101066.06;5070103;28;20055;-88
2023/05/10 11:18:23;;;;;;;11.88;7.70;;;;;;;16.33;100.00;101068.63;5070998;28;20025;-87